Dati Storici

Data ora Umidita' aria (%) Temperatura aria (°C) Rad globale (W/m²) Gonioanemometro (°) Tacoanemometro (m/s) Pioggia (mm)
17-10-2012 15:20 58.5 % 18.205 194.828 84.447 0.83 0
17-10-2012 15:10 59.7 % 17.963 195.384 104.549 0.652 0
17-10-2012 15:00 60.5 % 17.419 228.498 131.616 1.411 0
17-10-2012 14:50 59.8 % 18.546 197.03 118.705 1.569 0
17-10-2012 14:40 56.2 % 18.825 221.018 150.159 0.722 0
17-10-2012 14:30 55.7 % 19.236 296.187 213.336 0.729 0
17-10-2012 14:20 56.4 % 18.914 325.33 52.415 0.713 0
17-10-2012 14:10 58.8 % 18.866 435.943 37.89 0.931 0
17-10-2012 14:00 59.4 % 18.727 445.724 236.758 0.562 0
17-10-2012 13:50 61.8 % 18.388 357.345 206.951 -0.02 0
17-10-2012 13:40 61.2 % 18.032 339.192 52.49 0.478 0
17-10-2012 13:30 61.9 % 18.002 336.497 91.78 0.775 0
17-10-2012 13:20 61.8 % 18.406 410.588 14.298 1.466 0
17-10-2012 13:10 63.6 % 18.769 535.574 57.313 0.284 0
17-10-2012 13:00 66.1 % 17.899 590.872 37.756 0.997 0
17-10-2012 12:50 71.5 % 16.542 655.777 35.076 1.323 0
17-10-2012 12:40 73.6 % 16.008 364.439 37.044 0.741 0
17-10-2012 12:30 74.7 % 15.731 318.867 40.339 1 0
17-10-2012 12:20 75.7 % 15.492 287.322 23.089 1.019 0
17-10-2012 12:10 76.8 % 15.184 269.691 84.559 1.03 0

I dati sono presentati in modo automatico a scopo informativo. In seguito a verifica i dati possono subire modifiche o essere invalidati e non riportati negli archivi definitivi.